ウランバートル の空港の天気 - METARとTAF

チンギスハーン国際空港 ( ZMUB / ULN ) - モンゴル ウランバートル
飛行場実況気象(Metar)
観測時間10/22 20:30 ULAT (10/22 12:30 UTC)
風向・風速不定 1m/s
視程10km以上
天気現象
なし
気温-3℃
湿度63%
気圧1020hPa
METARZMUB 221230Z VRB01MPS CAVOK M03/M09 Q1020 NOSIG RMK QFE657.3 61
過去の天気等 Google飛行場航空写真 Wunderground天気予報

過去48時間のMETAR

飛行場予報(TAF)
発表時間: 10/22 18:33 ULAT (10/22 10:33 UTC)
予報対象時間: 22日20時 ULAT ~ 24日2時 ULAT
風向・風速不定 2m/s
視程10km以上
全天の4割程度の雲 雲底高度 3050m
TAF ZMUB 221033Z 2212/2318 VRB02MPS 9999 SCT100 TNM14/2222Z TX10/2307Z